createdAt,value
2018-12-09T00:00:03.364Z,17.03
2018-12-09T00:02:29.976Z,13.90
2018-12-09T00:04:56.597Z,18.83
2018-12-09T00:07:23.189Z,14.37
2018-12-09T00:09:49.789Z,12.53
2018-12-09T00:12:16.441Z,12.97
2018-12-09T00:14:43.005Z,12.80
2018-12-09T00:17:09.617Z,11.20
2018-12-09T00:19:36.187Z,9.10
2018-12-09T00:22:02.772Z,9.13
2018-12-09T00:24:29.360Z,9.00
2018-12-09T00:26:55.933Z,13.60
2018-12-09T00:29:22.504Z,13.37
2018-12-09T00:31:49.118Z,10.70
2018-12-09T00:34:15.712Z,17.10
2018-12-09T00:36:42.804Z,14.73
2018-12-09T00:39:09.397Z,13.53
2018-12-09T00:41:36.018Z,17.63
2018-12-09T00:44:02.616Z,18.80
2018-12-09T00:46:29.213Z,14.90
2018-12-09T00:48:55.792Z,14.97
2018-12-09T00:51:22.374Z,16.70
2018-12-09T00:53:48.957Z,18.07
2018-12-09T00:56:15.531Z,15.13
2018-12-09T00:58:42.216Z,15.43
2018-12-09T01:01:08.784Z,13.57
2018-12-09T01:03:35.372Z,10.80
2018-12-09T01:06:02.370Z,12.80
2018-12-09T01:08:28.940Z,14.20
2018-12-09T01:10:55.520Z,13.63
2018-12-09T01:13:22.089Z,14.27
2018-12-09T01:15:48.669Z,12.70
2018-12-09T01:18:15.249Z,9.90
2018-12-09T01:20:41.834Z,12.07
2018-12-09T01:23:08.403Z,12.90
2018-12-09T01:25:34.966Z,17.67
2018-12-09T01:28:01.630Z,16.60
2018-12-09T01:30:28.267Z,15.50
2018-12-09T01:32:54.914Z,13.83
2018-12-09T01:35:21.966Z,13.10
2018-12-09T01:37:48.629Z,12.13
2018-12-09T01:40:15.293Z,14.60
2018-12-09T01:42:41.972Z,15.03
2018-12-09T01:45:08.657Z,15.17
2018-12-09T01:47:35.644Z,17.13
2018-12-09T01:50:02.240Z,13.97
2018-12-09T01:52:28.889Z,13.77
2018-12-09T01:54:55.456Z,13.10
2018-12-09T01:57:22.136Z,13.40
2018-12-09T01:59:48.991Z,10.23
2018-12-09T02:02:15.660Z,14.37
2018-12-09T02:04:42.314Z,13.53
2018-12-09T02:07:08.910Z,11.70
2018-12-09T02:09:35.556Z,14.53
2018-12-09T02:12:02.120Z,14.03
2018-12-09T02:14:28.961Z,16.23
2018-12-09T02:16:55.530Z,14.57
2018-12-09T02:19:22.177Z,9.90
2018-12-09T02:21:48.931Z,17.07
2018-12-09T02:24:15.532Z,11.17
2018-12-09T02:26:42.147Z,23.53
2018-12-09T02:29:08.837Z,19.20
2018-12-09T02:31:35.512Z,12.77
2018-12-09T02:34:02.130Z,15.63
2018-12-09T02:36:28.733Z,12.43
2018-12-09T02:38:55.322Z,14.93
2018-12-09T02:41:21.917Z,11.17
2018-12-09T02:43:48.505Z,13.70
2018-12-09T02:46:15.101Z,15.33
2018-12-09T02:48:41.776Z,13.03
2018-12-09T02:51:08.425Z,12.27
2018-12-09T02:53:35.033Z,9.20
2018-12-09T02:56:01.709Z,20.37
2018-12-09T02:58:28.344Z,19.47
2018-12-09T03:00:54.937Z,21.47
2018-12-09T03:03:21.558Z,15.93
2018-12-09T03:05:48.215Z,12.70
2018-12-09T03:08:14.851Z,18.40
2018-12-09T03:10:41.441Z,10.60
2018-12-09T03:13:08.032Z,10.70
2018-12-09T03:15:34.902Z,12.43
2018-12-09T03:18:01.598Z,13.87
2018-12-09T03:20:28.249Z,14.73
2018-12-09T03:22:54.908Z,19.60
2018-12-09T03:25:21.477Z,17.13
2018-12-09T03:27:48.549Z,13.30
2018-12-09T03:30:15.226Z,14.93
2018-12-09T03:32:41.897Z,17.63
2018-12-09T03:35:08.598Z,17.27
2018-12-09T03:37:35.208Z,23.97
2018-12-09T03:40:01.973Z,18.80
2018-12-09T03:42:28.687Z,20.07
2018-12-09T03:44:55.261Z,17.80
2018-12-09T03:47:21.925Z,15.13
2018-12-09T03:49:48.572Z,19.57
2018-12-09T03:52:15.215Z,11.07
2018-12-09T03:54:41.882Z,15.37
2018-12-09T03:57:08.532Z,14.10
2018-12-09T03:59:35.196Z,10.13
2018-12-09T04:02:01.855Z,14.30
2018-12-09T04:04:28.502Z,19.83
2018-12-09T04:06:55.369Z,16.67
2018-12-09T04:09:22.032Z,14.77
2018-12-09T04:11:48.681Z,12.93
2018-12-09T04:14:15.330Z,11.77
2018-12-09T04:16:41.945Z,16.63
2018-12-09T04:19:08.517Z,10.33
2018-12-09T04:21:35.169Z,17.30
2018-12-09T04:24:01.749Z,17.53
2018-12-09T04:26:28.324Z,14.23
2018-12-09T04:28:54.889Z,12.37
2018-12-09T04:31:21.485Z,16.43
2018-12-09T04:33:48.440Z,12.77
2018-12-09T04:36:15.029Z,9.13
2018-12-09T04:38:41.597Z,13.00
2018-12-09T04:41:08.266Z,8.87
2018-12-09T04:43:34.852Z,9.40
2018-12-09T04:46:01.529Z,9.50
2018-12-09T04:48:28.198Z,12.03
2018-12-09T04:50:54.862Z,10.97
2018-12-09T04:53:21.508Z,20.00
2018-12-09T04:55:48.097Z,12.87
2018-12-09T04:58:14.753Z,12.03
2018-12-09T05:00:47.168Z,10.03
2018-12-09T05:03:13.846Z,14.13
2018-12-09T05:05:40.536Z,16.97
2018-12-09T05:08:07.208Z,15.60
2018-12-09T05:10:34.077Z,16.17
2018-12-09T05:13:00.722Z,11.33
2018-12-09T05:15:27.281Z,9.53
2018-12-09T05:17:53.952Z,11.07
2018-12-09T05:20:20.539Z,14.97
2018-12-09T05:22:47.156Z,19.10
2018-12-09T05:25:14.105Z,17.07
2018-12-09T05:27:40.674Z,16.67
2018-12-09T05:30:07.260Z,15.33
2018-12-09T05:32:33.928Z,8.83
2018-12-09T05:35:00.596Z,11.07
2018-12-09T05:37:27.286Z,16.23
2018-12-09T05:39:53.871Z,17.70
2018-12-09T05:42:20.477Z,14.40
2018-12-09T05:44:47.157Z,19.40
2018-12-09T05:47:13.833Z,15.87
2018-12-09T05:49:40.500Z,8.80
2018-12-09T05:52:07.473Z,12.93
2018-12-09T05:54:34.064Z,13.23
2018-12-09T05:57:00.797Z,12.90
2018-12-09T05:59:27.379Z,17.57
2018-12-09T06:01:55.944Z,20.00
2018-12-09T06:04:22.532Z,16.33
2018-12-09T06:06:49.180Z,15.63
2018-12-09T06:09:15.796Z,18.60
2018-12-09T06:11:42.369Z,16.23
2018-12-09T06:14:08.932Z,17.63
2018-12-09T06:16:35.533Z,13.17
2018-12-09T06:19:02.549Z,21.80
2018-12-09T06:21:29.219Z,13.33
2018-12-09T06:23:55.884Z,12.23
2018-12-09T06:26:22.477Z,14.33
2018-12-09T06:28:49.048Z,20.70
2018-12-09T06:31:15.641Z,15.63
2018-12-09T06:33:42.309Z,15.97
2018-12-09T06:36:08.900Z,14.13
2018-12-09T06:38:35.581Z,16.57
2018-12-09T06:41:02.156Z,13.30
2018-12-09T06:43:28.732Z,15.37
2018-12-09T06:45:55.726Z,9.07
2018-12-09T06:48:22.421Z,16.70
2018-12-09T06:50:49.068Z,15.93
2018-12-09T06:53:15.684Z,14.10
2018-12-09T06:55:42.336Z,14.57
2018-12-09T06:58:09.281Z,15.93
2018-12-09T07:00:36.164Z,17.13
2018-12-09T07:03:02.861Z,10.67
2018-12-09T07:05:29.444Z,11.57
2018-12-09T07:07:56.029Z,12.53
2018-12-09T07:10:22.696Z,6.70
2018-12-09T07:12:49.340Z,8.53
2018-12-09T07:15:15.942Z,14.33
2018-12-09T07:17:42.589Z,10.90
2018-12-09T07:20:09.292Z,10.53
2018-12-09T07:22:35.915Z,10.83
2018-12-09T07:25:02.603Z,13.20
2018-12-09T07:27:29.224Z,11.23
2018-12-09T07:30:02.066Z,7.87
2018-12-09T07:32:24.429Z,11.83
2018-12-09T07:34:51.002Z,13.17
2018-12-09T07:37:17.689Z,8.67
2018-12-09T07:39:44.426Z,14.30
2018-12-09T07:42:11.333Z,15.30
2018-12-09T07:44:37.977Z,9.50
2018-12-09T07:47:04.666Z,12.57
2018-12-09T07:49:31.341Z,12.40
2018-12-09T07:51:57.936Z,9.47
2018-12-09T07:54:24.510Z,14.20
2018-12-09T07:56:51.104Z,10.77
2018-12-09T07:59:17.693Z,12.03
2018-12-09T08:01:44.280Z,14.30
2018-12-09T08:04:10.901Z,14.13
2018-12-09T08:06:37.473Z,13.10
2018-12-09T08:09:04.485Z,10.27
2018-12-09T08:11:31.163Z,13.57
2018-12-09T08:13:57.729Z,11.87
2018-12-09T08:16:24.334Z,8.57
2018-12-09T08:18:50.930Z,14.07
2018-12-09T08:21:17.508Z,14.70
2018-12-09T08:23:44.101Z,20.07
2018-12-09T08:26:10.727Z,10.63
2018-12-09T08:28:37.369Z,14.60
2018-12-09T08:31:03.969Z,14.80
2018-12-09T08:33:30.556Z,13.13
2018-12-09T08:35:57.153Z,10.33
2018-12-09T08:38:23.741Z,9.23
2018-12-09T08:40:50.333Z,9.17
2018-12-09T08:43:16.958Z,15.23
2018-12-09T08:45:43.533Z,13.23
2018-12-09T08:48:10.100Z,12.33
2018-12-09T08:50:36.712Z,10.97
2018-12-09T08:53:03.277Z,13.67
2018-12-09T08:55:29.843Z,8.50
2018-12-09T08:57:56.423Z,12.13
2018-12-09T09:00:23.025Z,10.13
2018-12-09T09:02:49.596Z,8.70
2018-12-09T09:05:16.167Z,11.23
2018-12-09T09:07:42.742Z,13.87
2018-12-09T09:10:09.370Z,16.17
2018-12-09T09:12:35.943Z,11.20
2018-12-09T09:15:02.559Z,7.97
2018-12-09T09:17:29.139Z,8.20
2018-12-09T09:19:55.722Z,10.50
2018-12-09T09:22:22.389Z,9.90
2018-12-09T09:24:48.984Z,7.00
2018-12-09T09:27:15.601Z,12.47
2018-12-09T09:29:42.197Z,15.97
2018-12-09T09:32:08.808Z,8.17
2018-12-09T09:34:35.752Z,16.07
2018-12-09T09:37:02.363Z,9.47
2018-12-09T09:39:28.981Z,13.83
2018-12-09T09:41:55.549Z,12.23
2018-12-09T09:44:22.140Z,12.83
2018-12-09T09:46:48.726Z,15.13
2018-12-09T09:49:15.328Z,14.40
2018-12-09T09:51:41.945Z,11.67
2018-12-09T09:54:08.513Z,9.80
2018-12-09T09:56:35.116Z,13.27
2018-12-09T09:59:01.711Z,8.93
2018-12-09T10:01:28.335Z,10.80
2018-12-09T10:03:54.885Z,8.97
2018-12-09T10:06:21.466Z,8.50
2018-12-09T10:08:48.059Z,6.13
2018-12-09T10:11:14.620Z,7.83
2018-12-09T10:13:41.297Z,8.83
2018-12-09T10:16:07.853Z,9.37
2018-12-09T10:18:34.453Z,11.13
2018-12-09T10:21:01.033Z,7.73
2018-12-09T10:23:27.621Z,7.23
2018-12-09T10:25:54.181Z,9.50
2018-12-09T10:28:20.777Z,9.37
2018-12-09T10:30:47.346Z,9.30
2018-12-09T10:33:13.981Z,8.10
2018-12-09T10:35:40.564Z,9.33
2018-12-09T10:38:07.153Z,11.27
2018-12-09T10:40:33.837Z,10.10
2018-12-09T10:43:00.425Z,7.77
2018-12-09T10:45:26.999Z,6.83
2018-12-09T10:47:53.557Z,9.90
2018-12-09T10:50:20.149Z,7.50
2018-12-09T10:52:46.813Z,4.87
2018-12-09T10:55:13.381Z,9.20
2018-12-09T10:57:39.985Z,7.57
2018-12-09T11:00:08.481Z,5.10
2018-12-09T11:02:35.046Z,6.57
2018-12-09T11:05:01.966Z,3.33
2018-12-09T11:07:28.529Z,5.47
2018-12-09T11:09:55.104Z,7.40
2018-12-09T11:12:21.686Z,7.33
2018-12-09T11:14:48.273Z,4.07
2018-12-09T11:17:14.852Z,3.70
2018-12-09T11:19:41.416Z,1.73
2018-12-09T11:22:08.008Z,4.70
2018-12-09T11:24:34.593Z,2.60
2018-12-09T11:27:01.156Z,1.87
2018-12-09T11:29:27.741Z,5.77
2018-12-09T11:31:54.350Z,3.23
2018-12-09T11:34:20.917Z,1.97
2018-12-09T11:36:47.530Z,3.73
2018-12-09T11:39:14.097Z,2.77
2018-12-09T11:41:40.758Z,0.73
2018-12-09T11:44:07.349Z,2.30
2018-12-09T11:46:33.984Z,2.57
2018-12-09T11:49:00.540Z,2.37
2018-12-09T11:51:27.105Z,1.73
2018-12-09T11:53:53.717Z,4.63
2018-12-09T11:56:20.272Z,2.27
2018-12-09T11:58:46.868Z,1.77
2018-12-09T12:01:13.460Z,1.47
2018-12-09T12:03:40.039Z,1.50
2018-12-09T12:06:06.609Z,2.30
2018-12-09T12:08:33.210Z,1.50
2018-12-09T12:10:59.805Z,0.83
2018-12-09T12:13:26.396Z,4.20
2018-12-09T12:15:52.975Z,1.20
2018-12-09T12:18:19.565Z,2.47
2018-12-09T12:20:46.128Z,3.03
2018-12-09T12:23:12.692Z,4.27
2018-12-09T12:25:39.277Z,0.57
2018-12-09T12:28:05.876Z,1.43
2018-12-09T12:30:32.438Z,2.80
2018-12-09T12:32:59.000Z,1.90
2018-12-09T12:35:25.654Z,2.23
2018-12-09T12:37:52.233Z,1.67
2018-12-09T12:40:18.798Z,2.53
2018-12-09T12:42:45.405Z,3.27
2018-12-09T12:45:12.024Z,0.93
2018-12-09T12:47:38.605Z,2.63
2018-12-09T12:50:12.046Z,5.17
2018-12-09T12:52:38.727Z,3.00
2018-12-09T12:55:05.308Z,1.47
2018-12-09T12:57:31.890Z,1.47
2018-12-09T12:59:58.876Z,2.17
2018-12-09T13:02:25.468Z,1.97
2018-12-09T13:04:52.053Z,2.00
2018-12-09T13:07:18.662Z,3.47
2018-12-09T13:09:45.262Z,4.83
2018-12-09T13:12:11.871Z,1.30
2018-12-09T13:14:38.438Z,2.40
2018-12-09T13:17:05.046Z,1.97
2018-12-09T13:19:31.623Z,2.77
2018-12-09T13:21:58.188Z,3.00
2018-12-09T13:24:24.914Z,2.87
2018-12-09T13:26:51.581Z,4.43
2018-12-09T13:29:18.189Z,4.07
2018-12-09T13:31:44.757Z,5.40
2018-12-09T13:34:11.373Z,5.90
2018-12-09T13:36:37.937Z,9.47
2018-12-09T13:39:04.844Z,8.07
2018-12-09T13:41:31.428Z,1.83
2018-12-09T13:43:57.989Z,2.20
2018-12-09T13:46:24.601Z,1.33
2018-12-09T13:48:51.201Z,2.37
2018-12-09T13:51:17.898Z,4.10
2018-12-09T13:53:44.557Z,1.80
2018-12-09T13:56:11.131Z,0.90
2018-12-09T13:58:37.716Z,2.77
2018-12-09T14:01:04.292Z,2.63
2018-12-09T14:03:30.856Z,0.73
2018-12-09T14:05:57.443Z,1.93
2018-12-09T14:08:24.053Z,2.07
2018-12-09T14:10:50.618Z,1.93
2018-12-09T14:13:17.205Z,2.30
2018-12-09T14:15:43.784Z,5.50
2018-12-09T14:18:10.370Z,4.10
2018-12-09T14:20:37.053Z,7.70
2018-12-09T14:23:03.728Z,7.07
2018-12-09T14:25:30.297Z,10.33
2018-12-09T14:27:56.925Z,10.10
2018-12-09T14:30:23.517Z,4.87
2018-12-09T14:32:50.101Z,8.50
2018-12-09T14:35:16.720Z,5.70
2018-12-09T14:37:43.327Z,5.17
2018-12-09T14:40:10.011Z,7.00
2018-12-09T14:42:36.597Z,7.77
2018-12-09T14:45:03.796Z,6.60
2018-12-09T14:47:30.380Z,6.20
2018-12-09T14:49:56.949Z,4.37
2018-12-09T14:52:23.536Z,8.83
2018-12-09T14:54:50.106Z,6.33
2018-12-09T14:57:16.673Z,5.43
2018-12-09T14:59:43.265Z,7.57
2018-12-09T15:02:09.827Z,4.80
2018-12-09T15:04:36.393Z,4.63
2018-12-09T15:07:02.977Z,8.83
2018-12-09T15:09:29.577Z,6.63
2018-12-09T15:11:56.189Z,8.70
2018-12-09T15:14:22.789Z,6.57
2018-12-09T15:16:49.407Z,4.03
2018-12-09T15:19:15.997Z,7.07
2018-12-09T15:21:42.619Z,6.23
2018-12-09T15:24:09.178Z,9.43
2018-12-09T15:26:35.798Z,6.00
2018-12-09T15:29:02.361Z,7.60
2018-12-09T15:31:28.945Z,12.90
2018-12-09T15:33:55.511Z,8.13
2018-12-09T15:36:22.133Z,6.03
2018-12-09T15:38:48.700Z,8.97
2018-12-09T15:41:15.265Z,9.60
2018-12-09T15:43:41.881Z,9.47
2018-12-09T15:46:08.469Z,8.07
2018-12-09T15:48:35.113Z,11.53
2018-12-09T15:51:01.917Z,8.30
2018-12-09T15:53:28.486Z,8.30
2018-12-09T15:55:55.198Z,15.47
2018-12-09T15:58:21.777Z,14.30
2018-12-09T16:00:53.994Z,15.40
2018-12-09T16:03:20.573Z,11.37
2018-12-09T16:05:47.137Z,10.03
2018-12-09T16:08:13.733Z,11.23
2018-12-09T16:10:40.297Z,9.27
2018-12-09T16:13:06.904Z,6.70
2018-12-09T16:15:33.465Z,9.97
2018-12-09T16:18:00.072Z,10.50
2018-12-09T16:20:26.675Z,10.93
2018-12-09T16:22:53.241Z,16.00
2018-12-09T16:25:19.881Z,11.93
2018-12-09T16:27:46.452Z,14.60
2018-12-09T16:30:13.045Z,6.23
2018-12-09T16:32:39.656Z,16.20
2018-12-09T16:35:06.453Z,11.47
2018-12-09T16:37:33.086Z,6.90
2018-12-09T16:39:59.661Z,8.90
2018-12-09T16:42:26.233Z,4.97
2018-12-09T16:44:52.822Z,6.50
2018-12-09T16:47:19.420Z,10.27
2018-12-09T16:49:46.005Z,14.40
2018-12-09T16:52:12.589Z,9.10
2018-12-09T16:54:39.177Z,7.43
2018-12-09T16:57:05.921Z,8.90
2018-12-09T16:59:32.485Z,9.60
2018-12-09T17:01:59.061Z,9.47
2018-12-09T17:04:25.652Z,7.90
2018-12-09T17:06:52.243Z,11.93
2018-12-09T17:09:18.833Z,7.77
2018-12-09T17:11:45.392Z,7.67
2018-12-09T17:14:11.980Z,9.30
2018-12-09T17:16:38.553Z,15.83
2018-12-09T17:19:05.176Z,9.00
2018-12-09T17:21:31.914Z,8.70
2018-12-09T17:23:58.553Z,6.80
2018-12-09T17:26:25.120Z,11.57
2018-12-09T17:28:51.729Z,18.47
2018-12-09T17:31:18.327Z,8.97
2018-12-09T17:33:44.975Z,9.13
2018-12-09T17:36:11.544Z,11.50
2018-12-09T17:38:38.132Z,12.20
2018-12-09T17:41:04.705Z,8.40
2018-12-09T17:43:31.328Z,6.13
2018-12-09T17:45:57.892Z,10.77
2018-12-09T17:48:24.481Z,16.23
2018-12-09T17:50:51.049Z,11.03
2018-12-09T17:53:17.637Z,13.10
2018-12-09T17:55:44.220Z,12.70
2018-12-09T17:58:10.813Z,11.70
2018-12-09T18:00:37.424Z,13.10
2018-12-09T18:03:04.016Z,11.63
2018-12-09T18:05:30.613Z,13.70
2018-12-09T18:07:57.181Z,12.00
2018-12-09T18:10:23.756Z,10.87
2018-12-09T18:12:50.350Z,9.03
2018-12-09T18:15:17.557Z,18.87
2018-12-09T18:17:44.213Z,13.83
2018-12-09T18:20:10.850Z,12.13
2018-12-09T18:22:37.433Z,7.40
2018-12-09T18:25:04.455Z,13.50
2018-12-09T18:27:31.035Z,11.27
2018-12-09T18:29:57.624Z,14.43
2018-12-09T18:32:24.240Z,12.17
2018-12-09T18:34:50.813Z,13.60
2018-12-09T18:37:17.437Z,12.63
2018-12-09T18:39:44.008Z,10.77
2018-12-09T18:42:11.587Z,11.50
2018-12-09T18:44:38.148Z,16.90
2018-12-09T18:47:04.710Z,17.30
2018-12-09T18:49:31.297Z,18.80
2018-12-09T18:51:57.876Z,15.20
2018-12-09T18:54:24.470Z,15.77
2018-12-09T18:56:51.040Z,10.80
2018-12-09T18:59:17.740Z,11.80
2018-12-09T19:01:44.314Z,13.67
2018-12-09T19:04:10.869Z,9.43
2018-12-09T19:06:37.506Z,18.57
2018-12-09T19:09:04.796Z,9.03
2018-12-09T19:11:31.417Z,13.07
2018-12-09T19:13:57.985Z,13.43
2018-12-09T19:16:24.576Z,7.57
2018-12-09T19:18:51.224Z,15.43
2018-12-09T19:21:17.816Z,13.07
2018-12-09T19:23:44.417Z,8.27
2018-12-09T19:26:11.005Z,7.80
2018-12-09T19:28:37.606Z,5.70
2018-12-09T19:31:04.168Z,7.97
2018-12-09T19:33:30.733Z,5.60
2018-12-09T19:35:57.331Z,4.20
2018-12-09T19:38:23.923Z,8.53
2018-12-09T19:40:50.493Z,5.73
2018-12-09T19:43:17.085Z,11.83
2018-12-09T19:45:43.652Z,7.33
2018-12-09T19:48:10.248Z,10.17
2018-12-09T19:50:38.254Z,13.27
2018-12-09T19:53:05.016Z,11.20
2018-12-09T19:55:31.588Z,11.10
2018-12-09T19:57:58.176Z,10.70
2018-12-09T20:00:24.769Z,21.03
2018-12-09T20:02:51.332Z,8.73
2018-12-09T20:05:17.917Z,17.53
2018-12-09T20:07:44.549Z,17.97
2018-12-09T20:10:11.109Z,11.90
2018-12-09T20:12:37.696Z,17.97
2018-12-09T20:15:05.208Z,12.30
2018-12-09T20:17:31.817Z,14.40
2018-12-09T20:19:58.401Z,14.03
2018-12-09T20:22:24.972Z,11.13
2018-12-09T20:24:51.561Z,11.87
2018-12-09T20:27:18.162Z,11.40
2018-12-09T20:29:44.742Z,13.00
2018-12-09T20:32:11.309Z,12.07
2018-12-09T20:34:37.897Z,11.77
2018-12-09T20:37:04.497Z,12.13
2018-12-09T20:39:31.190Z,10.13
2018-12-09T20:41:57.792Z,8.83
2018-12-09T20:44:24.352Z,9.47
2018-12-09T20:46:50.933Z,6.67
2018-12-09T20:49:17.513Z,9.53
2018-12-09T20:51:44.100Z,10.90
2018-12-09T20:54:10.686Z,11.50
2018-12-09T20:56:37.266Z,9.53
2018-12-09T20:59:03.837Z,12.70
2018-12-09T21:01:30.425Z,10.50
2018-12-09T21:03:57.001Z,10.70
2018-12-09T21:06:23.618Z,13.87
2018-12-09T21:08:50.181Z,8.93
2018-12-09T21:11:16.770Z,11.63
2018-12-09T21:13:44.182Z,14.03
2018-12-09T21:16:10.864Z,8.63
2018-12-09T21:18:37.432Z,9.43
2018-12-09T21:21:04.021Z,9.43
2018-12-09T21:23:30.601Z,10.07
2018-12-09T21:25:57.189Z,12.17
2018-12-09T21:28:23.759Z,6.03
2018-12-09T21:30:50.342Z,11.70
2018-12-09T21:33:16.943Z,14.33
2018-12-09T21:35:43.558Z,10.37
2018-12-09T21:38:10.553Z,8.50
2018-12-09T21:40:37.185Z,11.57
2018-12-09T21:43:03.798Z,11.47
2018-12-09T21:45:30.378Z,16.87
2018-12-09T21:47:56.965Z,9.80
2018-12-09T21:50:23.534Z,14.77
2018-12-09T21:52:50.121Z,15.60
2018-12-09T21:55:17.033Z,9.80
2018-12-09T21:57:43.600Z,12.67
2018-12-09T22:00:10.193Z,12.10
2018-12-09T22:02:36.797Z,15.60
2018-12-09T22:05:03.889Z,9.10
2018-12-09T22:07:30.466Z,11.43
2018-12-09T22:09:57.073Z,18.07
2018-12-09T22:12:23.660Z,18.80
2018-12-09T22:14:50.261Z,13.37
2018-12-09T22:17:16.840Z,13.23
2018-12-09T22:19:43.425Z,14.83
2018-12-09T22:22:09.989Z,8.97
2018-12-09T22:24:36.601Z,8.57
2018-12-09T22:27:03.197Z,8.27
2018-12-09T22:29:29.773Z,5.27
2018-12-09T22:31:56.380Z,5.60
2018-12-09T22:34:22.969Z,8.83
2018-12-09T22:36:49.571Z,10.83
2018-12-09T22:39:16.132Z,7.67
2018-12-09T22:41:42.712Z,12.60
2018-12-09T22:44:09.285Z,11.63
2018-12-09T22:46:35.848Z,6.10
2018-12-09T22:49:02.429Z,10.50
2018-12-09T22:51:29.028Z,11.03
2018-12-09T22:53:55.636Z,7.03
2018-12-09T22:56:22.192Z,9.03
2018-12-09T22:58:48.763Z,5.60
2018-12-09T23:01:18.383Z,12.50
2018-12-09T23:03:44.985Z,12.80
2018-12-09T23:06:11.593Z,7.03
2018-12-09T23:08:38.179Z,8.63
2018-12-09T23:11:04.764Z,12.10
2018-12-09T23:13:31.361Z,9.17
2018-12-09T23:15:57.960Z,12.70
2018-12-09T23:18:26.569Z,7.43
2018-12-09T23:20:53.080Z,7.53
2018-12-09T23:23:19.656Z,9.13
2018-12-09T23:25:46.230Z,10.57
2018-12-09T23:28:12.832Z,12.20
2018-12-09T23:30:39.561Z,12.27
2018-12-09T23:33:06.130Z,11.97
2018-12-09T23:35:32.796Z,15.47
2018-12-09T23:37:59.385Z,16.67
2018-12-09T23:40:26.005Z,11.37
2018-12-09T23:42:52.585Z,11.70
2018-12-09T23:45:19.202Z,8.33
2018-12-09T23:47:45.968Z,8.63
2018-12-09T23:50:12.582Z,10.40
2018-12-09T23:52:39.180Z,8.57
2018-12-09T23:55:05.774Z,11.97
2018-12-09T23:57:32.365Z,8.37
2018-12-09T23:59:58.947Z,9.00
